Time;durP1;ratioP1;P1;durP2;ratioP2;P2;SDS_P1;SDS_P2;PMS_P1;PMS_P2;Temp;Humidity;BMP_temperature;BMP_pressure;BME280_temperature;BME280_humidity;BME280_pressure;Samples;Min_cycle;Max_cycle;Signal;HPM_P1;HPM_P2
2024/02/03 00:01:27;;;;;;;26.02;16.70;;;10.50;99.90;;;;;;5032732;28;20029;-77
2024/02/03 00:03:53;;;;;;;26.85;18.40;;;10.40;99.90;;;;;;5032235;28;20025;-77
2024/02/03 00:06:18;;;;;;;25.77;16.35;;;10.40;99.90;;;;;;5032624;28;20021;-77
2024/02/03 00:08:44;;;;;;;26.20;17.45;;;10.50;99.90;;;;;;5031923;28;20693;-77
2024/02/03 00:11:13;;;;;;;26.02;16.85;;;10.50;99.90;;;;;;5032418;28;20034;-77
2024/02/03 00:13:39;;;;;;;24.17;15.82;;;10.40;99.90;;;;;;5031873;28;20022;-76
2024/02/03 00:16:07;;;;;;;27.38;16.20;;;10.40;99.90;;;;;;5032415;28;20434;-78
2024/02/03 00:18:34;;;;;;;22.65;14.95;;;10.40;99.90;;;;;;5031838;28;20041;-77
2024/02/03 00:21:05;;;;;;;25.38;15.88;;;10.40;99.90;;;;;;5014112;28;20036;-78
2024/02/03 00:23:31;;;;;;;20.70;14.57;;;10.40;99.90;;;;;;5030906;28;20021;-78
2024/02/03 00:25:57;;;;;;;25.15;14.77;;;10.50;99.90;;;;;;5032197;28;20395;-78
2024/02/03 00:28:23;;;;;;;23.90;15.98;;;10.50;99.90;;;;;;5031676;28;20032;-78
2024/02/03 00:30:49;;;;;;;23.40;15.23;;;10.50;99.90;;;;;;5014000;28;20052;-77
2024/02/03 00:33:14;;;;;;;23.02;16.02;;;10.40;99.90;;;;;;5031512;28;20033;-78
2024/02/03 00:35:40;;;;;;;26.23;15.70;;;10.40;99.90;;;;;;5037690;28;20026;-77
2024/02/03 00:38:06;;;;;;;23.45;16.00;;;10.40;99.90;;;;;;5013677;28;20014;-78
2024/02/03 00:40:32;;;;;;;24.48;16.50;;;10.40;99.90;;;;;;5031707;28;20036;-77
2024/02/03 00:43:01;;;;;;;29.83;16.67;;;10.40;99.90;;;;;;5031961;28;20029;-77
2024/02/03 00:45:26;;;;;;;21.95;16.15;;;10.50;99.90;;;;;;5034338;28;20036;-78
2024/02/03 00:47:52;;;;;;;26.27;17.10;;;10.40;99.90;;;;;;5031296;28;20503;-75
2024/02/03 00:50:18;;;;;;;23.05;16.02;;;10.40;99.90;;;;;;5013787;28;20376;-77
2024/02/03 00:52:44;;;;;;;24.58;17.05;;;10.40;99.90;;;;;;5013369;28;20058;-77
2024/02/03 00:55:10;;;;;;;21.67;16.42;;;10.50;99.90;;;;;;5031567;28;20033;-76
2024/02/03 00:57:39;;;;;;;24.48;16.83;;;10.40;99.90;;;;;;5030822;28;20076;-77
2024/02/03 01:00:06;;;;;;;24.15;16.48;;;10.50;99.90;;;;;;5031782;28;20029;-77
2024/02/03 01:02:35;;;;;;;22.95;15.25;;;10.50;99.90;;;;;;5031134;28;20064;-77
2024/02/03 01:05:01;;;;;;;24.73;15.52;;;10.40;99.90;;;;;;5031529;28;20073;-77
2024/02/03 01:07:27;;;;;;;27.90;16.02;;;10.50;99.90;;;;;;5033967;28;20450;-77
2024/02/03 01:09:53;;;;;;;21.95;15.32;;;10.40;99.90;;;;;;5031197;28;20494;-77
2024/02/03 01:12:19;;;;;;;21.48;13.93;;;10.40;99.90;;;;;;5031143;28;20036;-77
2024/02/03 01:14:45;;;;;;;22.83;14.77;;;10.50;99.90;;;;;;5031127;28;20055;-78
2024/02/03 01:17:14;;;;;;;22.77;14.38;;;10.50;99.90;;;;;;5030953;28;20390;-78
2024/02/03 01:19:40;;;;;;;21.20;13.95;;;10.40;99.90;;;;;;5030918;28;20112;-77
2024/02/03 01:22:05;;;;;;;20.45;13.02;;;10.50;99.90;;;;;;5013623;28;20053;-77
2024/02/03 01:24:31;;;;;;;20.15;12.90;;;10.50;99.90;;;;;;5031394;28;20360;-77
2024/02/03 01:26:57;;;;;;;20.83;13.27;;;10.50;99.90;;;;;;5030623;28;20038;-76
2024/02/03 01:29:22;;;;;;;20.45;13.32;;;10.50;99.90;;;;;;5031182;28;20032;-77
2024/02/03 01:31:48;;;;;;;19.25;11.88;;;10.50;99.90;;;;;;5031455;28;20057;-77
2024/02/03 01:34:17;;;;;;;15.52;11.18;;;10.50;99.90;;;;;;5030905;28;20032;-76
2024/02/03 01:36:43;;;;;;;16.30;11.20;;;10.50;99.90;;;;;;5031201;28;20034;-77
2024/02/03 01:39:09;;;;;;;15.30;10.05;;;10.50;99.90;;;;;;5031411;28;20786;-77
2024/02/03 01:41:35;;;;;;;14.88;10.25;;;10.50;99.90;;;;;;5031467;28;20074;-76
2024/02/03 01:44:01;;;;;;;19.30;11.02;;;10.50;99.90;;;;;;5031099;28;20022;-77
2024/02/03 01:46:28;;;;;;;18.90;10.32;;;10.60;99.90;;;;;;5013545;28;20107;-79
2024/02/03 01:48:55;;;;;;;17.48;11.15;;;10.50;99.90;;;;;;5031153;28;20030;-75
2024/02/03 01:51:22;;;;;;;15.68;10.15;;;10.60;99.90;;;;;;5031705;28;20193;-77
2024/02/03 01:53:52;;;;;;;15.80;10.52;;;10.60;99.90;;;;;;5013217;28;20025;-76
2024/02/03 01:56:20;;;;;;;16.45;10.18;;;10.60;99.90;;;;;;5031388;28;20052;-77
2024/02/03 01:58:47;;;;;;;13.88;10.38;;;10.60;99.90;;;;;;5013169;28;20182;-77
2024/02/03 02:01:14;;;;;;;17.45;10.35;;;10.60;99.90;;;;;;5031664;28;20026;-77
2024/02/03 02:03:46;;;;;;;15.57;10.10;;;10.60;99.90;;;;;;5029136;28;20036;-76
2024/02/03 02:06:15;;;;;;;16.35;9.93;;;10.60;99.90;;;;;;5029616;28;20049;-76
2024/02/03 02:08:41;;;;;;;15.10;9.43;;;10.60;99.90;;;;;;5031024;28;20119;-76
2024/02/03 02:11:07;;;;;;;19.33;10.52;;;10.70;99.90;;;;;;5019672;28;20025;-76
2024/02/03 02:13:32;;;;;;;12.57;9.07;;;10.70;99.90;;;;;;5012699;28;20116;-76
2024/02/03 02:15:58;;;;;;;18.88;10.52;;;10.70;99.90;;;;;;5012705;28;20564;-76
2024/02/03 02:18:25;;;;;;;14.80;9.73;;;10.70;99.90;;;;;;5029794;28;20554;-76
2024/02/03 02:20:53;;;;;;;15.73;8.55;;;10.70;99.90;;;;;;5030246;28;20058;-76
2024/02/03 02:23:18;;;;;;;17.50;9.20;;;10.70;99.90;;;;;;5029963;28;20033;-76
2024/02/03 02:25:44;;;;;;;13.65;9.40;;;10.70;99.90;;;;;;5012700;28;20028;-76
2024/02/03 02:28:10;;;;;;;18.98;8.98;;;10.70;99.90;;;;;;5012224;28;20040;-75
2024/02/03 02:30:36;;;;;;;13.32;8.18;;;10.70;99.90;;;;;;5030246;28;20048;-79
2024/02/03 02:33:02;;;;;;;14.73;8.50;;;10.70;99.90;;;;;;5012001;28;20030;-78
2024/02/03 02:35:28;;;;;;;12.38;8.40;;;10.70;99.90;;;;;;5030365;28;20030;-76
2024/02/03 02:37:54;;;;;;;19.52;9.30;;;10.70;99.90;;;;;;5033104;28;20024;-76
2024/02/03 02:40:19;;;;;;;14.70;7.95;;;10.70;99.90;;;;;;5030526;28;20037;-76
2024/02/03 02:42:45;;;;;;;11.65;7.80;;;10.70;99.90;;;;;;5029995;28;20025;-77
2024/02/03 02:45:14;;;;;;;13.65;7.72;;;10.70;99.90;;;;;;5030686;28;20075;-77
2024/02/03 02:47:40;;;;;;;13.65;8.18;;;10.70;99.90;;;;;;5032692;28;20456;-77
2024/02/03 02:50:06;;;;;;;13.25;7.95;;;10.70;99.90;;;;;;5033760;28;20025;-77
2024/02/03 02:52:32;;;;;;;11.80;7.60;;;10.70;99.90;;;;;;5033568;28;20021;-76
2024/02/03 02:54:58;;;;;;;16.70;7.93;;;10.70;99.90;;;;;;5033634;28;20107;-76
2024/02/03 02:57:23;;;;;;;13.38;8.43;;;10.70;99.90;;;;;;5033286;28;20037;-76
2024/02/03 02:59:49;;;;;;;11.27;8.02;;;10.70;99.90;;;;;;5033758;28;20021;-77
2024/02/03 03:02:15;;;;;;;14.40;7.90;;;10.70;99.90;;;;;;5036426;28;20451;-77
2024/02/03 03:04:41;;;;;;;16.20;9.15;;;10.70;99.90;;;;;;5033811;28;20025;-77
2024/02/03 03:07:07;;;;;;;15.20;8.57;;;10.70;99.90;;;;;;5033527;28;20403;-77
2024/02/03 03:09:33;;;;;;;14.60;8.98;;;10.70;99.90;;;;;;5033059;28;20112;-78
2024/02/03 03:11:58;;;;;;;14.00;7.82;;;10.70;99.90;;;;;;5033673;28;20026;-77
2024/02/03 03:14:24;;;;;;;14.10;8.30;;;10.60;99.90;;;;;;5032886;28;20037;-77
2024/02/03 03:16:50;;;;;;;15.98;8.57;;;10.60;99.90;;;;;;5033046;28;20131;-78
2024/02/03 03:19:16;;;;;;;16.17;8.80;;;10.60;99.90;;;;;;5032730;28;20514;-77
2024/02/03 03:21:42;;;;;;;12.45;8.15;;;10.60;99.90;;;;;;5033500;28;20051;-76
2024/02/03 03:24:07;;;;;;;13.65;9.30;;;10.60;99.90;;;;;;5032593;28;20486;-77
2024/02/03 03:26:41;;;;;;;15.05;8.65;;;10.50;99.90;;;;;;5034588;28;20031;-77
2024/02/03 03:29:11;;;;;;;16.15;9.75;;;10.50;99.90;;;;;;5034377;28;20029;-77
2024/02/03 03:31:37;;;;;;;13.63;8.35;;;10.50;99.90;;;;;;5032899;28;20403;-77
2024/02/03 03:34:06;;;;;;;16.00;9.10;;;10.50;99.90;;;;;;5032482;28;20023;-77
2024/02/03 03:36:32;;;;;;;15.23;9.70;;;10.50;99.90;;;;;;5033188;28;20032;-77
2024/02/03 03:39:00;;;;;;;15.75;9.57;;;10.50;99.90;;;;;;5032698;28;20461;-77
2024/02/03 03:41:26;;;;;;;14.25;9.10;;;10.50;99.90;;;;;;5033045;28;20101;-77
2024/02/03 03:43:51;;;;;;;17.65;9.82;;;10.50;99.90;;;;;;5014892;28;20056;-78
2024/02/03 03:46:20;;;;;;;12.65;9.05;;;10.50;99.90;;;;;;5033216;28;20033;-77
2024/02/03 03:48:45;;;;;;;12.82;7.97;;;10.50;99.90;;;;;;5014452;28;20040;-76
2024/02/03 03:51:11;;;;;;;15.18;8.85;;;10.50;99.90;;;;;;5033074;28;20025;-77
2024/02/03 03:53:37;;;;;;;15.52;9.32;;;10.50;99.90;;;;;;5014376;28;20558;-77
2024/02/03 03:56:03;;;;;;;15.70;8.73;;;10.50;99.90;;;;;;5032954;28;20474;-78
2024/02/03 03:58:28;;;;;;;14.70;8.50;;;10.50;99.90;;;;;;5031351;28;20021;-78
2024/02/03 04:00:54;;;;;;;14.93;8.88;;;10.50;99.90;;;;;;5018608;28;20021;-76
2024/02/03 04:03:22;;;;;;;14.50;8.27;;;10.50;99.90;;;;;;5032303;28;20479;-77
2024/02/03 04:05:48;;;;;;;15.20;8.80;;;10.50;99.90;;;;;;5014502;28;20033;-77
2024/02/03 04:08:15;;;;;;;12.50;8.40;;;10.60;99.90;;;;;;5031834;28;20036;-76
2024/02/03 04:10:40;;;;;;;15.90;8.70;;;10.60;99.90;;;;;;5032459;28;20143;-76
2024/02/03 04:13:06;;;;;;;13.90;8.13;;;10.60;99.90;;;;;;5031641;28;20029;-77
2024/02/03 04:15:32;;;;;;;12.30;8.05;;;10.60;99.90;;;;;;5031834;28;20065;-77
2024/02/03 04:17:58;;;;;;;12.25;7.47;;;10.60;99.90;;;;;;5035428;28;20529;-77
2024/02/03 04:20:27;;;;;;;17.35;8.38;;;10.60;99.90;;;;;;5032184;28;20096;-77
2024/02/03 04:22:53;;;;;;;17.42;8.52;;;10.60;99.90;;;;;;5013908;28;20120;-77
2024/02/03 04:25:18;;;;;;;13.95;8.80;;;10.60;99.90;;;;;;5032205;28;20155;-78
2024/02/03 04:27:44;;;;;;;13.27;8.30;;;10.60;99.90;;;;;;5029739;28;20030;-78
2024/02/03 04:30:10;;;;;;;12.23;8.25;;;10.60;99.90;;;;;;5032027;28;20449;-78
2024/02/03 04:32:39;;;;;;;14.55;8.43;;;10.60;99.90;;;;;;5031629;28;20053;-78
2024/02/03 04:35:05;;;;;;;12.57;8.77;;;10.60;99.90;;;;;;5031804;28;20022;-78
2024/02/03 04:37:31;;;;;;;14.05;7.90;;;10.60;99.90;;;;;;5030950;28;20052;-78
2024/02/03 04:39:58;;;;;;;11.75;8.10;;;10.60;99.90;;;;;;5031506;28;20021;-77
2024/02/03 04:42:24;;;;;;;15.68;8.68;;;10.60;99.90;;;;;;5031532;28;20387;-77
2024/02/03 04:44:49;;;;;;;15.63;8.13;;;10.60;99.90;;;;;;5031343;28;20025;-76
2024/02/03 04:47:15;;;;;;;14.35;8.15;;;10.60;99.90;;;;;;5031487;28;20032;-77
2024/02/03 04:49:41;;;;;;;14.35;8.52;;;10.60;99.90;;;;;;5031226;28;20053;-77
2024/02/03 04:52:07;;;;;;;12.82;7.93;;;10.60;99.90;;;;;;5031491;28;20111;-78
2024/02/03 04:54:33;;;;;;;17.45;8.05;;;10.60;99.90;;;;;;5031143;28;20034;-77
2024/02/03 04:57:01;;;;;;;13.63;8.30;;;10.60;99.90;;;;;;5031459;28;20479;-76
2024/02/03 04:59:27;;;;;;;13.77;8.10;;;10.60;99.90;;;;;;5030986;28;20036;-77
2024/02/03 05:01:53;;;;;;;13.00;8.05;;;10.50;99.90;;;;;;5031694;28;20029;-77
2024/02/03 05:04:21;;;;;;;16.20;8.20;;;10.60;99.90;;;;;;5017357;28;20491;-77
2024/02/03 05:06:47;;;;;;;14.32;7.80;;;10.60;99.90;;;;;;5031267;28;20041;-77
2024/02/03 05:09:15;;;;;;;15.40;8.73;;;10.60;99.90;;;;;;5030939;28;20037;-77
2024/02/03 05:11:41;;;;;;;13.25;8.07;;;10.50;99.90;;;;;;5031268;28;20523;-77
2024/02/03 05:14:07;;;;;;;16.10;7.55;;;10.50;99.90;;;;;;5012909;28;20045;-77
2024/02/03 05:16:35;;;;;;;13.57;7.50;;;10.60;99.90;;;;;;5031005;28;20029;-76
2024/02/03 05:19:03;;;;;;;16.15;7.78;;;10.60;99.90;;;;;;5030369;28;20034;-76
2024/02/03 05:21:30;;;;;;;13.77;7.15;;;10.60;99.90;;;;;;5031221;28;20063;-76
2024/02/03 05:23:55;;;;;;;16.73;7.35;;;10.60;99.90;;;;;;5030492;28;20014;-77
2024/02/03 05:26:21;;;;;;;10.63;7.00;;;10.50;99.90;;;;;;5031065;28;20029;-77
2024/02/03 05:28:50;;;;;;;13.93;6.55;;;10.60;99.90;;;;;;5030843;28;20508;-77
2024/02/03 05:31:22;;;;;;;14.38;7.57;;;10.50;99.90;;;;;;5030985;28;20479;-76
2024/02/03 05:33:48;;;;;;;12.52;6.63;;;10.60;99.90;;;;;;5033134;28;20025;-77
2024/02/03 05:36:13;;;;;;;13.20;6.30;;;10.60;99.90;;;;;;5034371;28;20036;-77
2024/02/03 05:38:39;;;;;;;13.25;6.43;;;10.60;99.90;;;;;;5030900;28;20150;-77
2024/02/03 05:41:09;;;;;;;14.38;7.63;;;10.60;99.90;;;;;;5013226;28;20028;-77
2024/02/03 05:43:35;;;;;;;11.27;6.28;;;10.70;99.90;;;;;;5030535;28;20021;-78
2024/02/03 05:46:01;;;;;;;16.98;7.25;;;10.60;99.90;;;;;;5030901;28;20044;-77
2024/02/03 05:48:26;;;;;;;15.15;6.75;;;10.60;99.90;;;;;;5030524;28;20037;-77
2024/02/03 05:50:52;;;;;;;13.20;7.00;;;10.60;99.90;;;;;;5030942;28;20618;-78
2024/02/03 05:53:18;;;;;;;13.95;6.75;;;10.70;99.90;;;;;;5030679;28;20411;-77
2024/02/03 05:55:44;;;;;;;11.15;6.57;;;10.60;99.90;;;;;;5030507;28;20022;-77
2024/02/03 05:58:10;;;;;;;9.35;5.30;;;10.70;99.90;;;;;;5030298;28;20072;-77
2024/02/03 06:00:35;;;;;;;11.85;5.60;;;10.60;99.90;;;;;;5030390;28;20521;-77
2024/02/03 06:03:01;;;;;;;12.60;5.90;;;10.60;99.90;;;;;;5031412;28;20020;-77
2024/02/03 06:05:27;;;;;;;10.85;5.47;;;10.70;99.90;;;;;;5034589;28;20026;-77
2024/02/03 06:07:53;;;;;;;13.10;5.72;;;10.70;99.90;;;;;;5032480;28;20029;-77
2024/02/03 06:10:19;;;;;;;16.70;5.38;;;10.70;99.90;;;;;;5025197;28;20072;-78
2024/02/03 06:12:44;;;;;;;11.48;5.40;;;10.70;99.90;;;;;;5030767;28;20025;-78
2024/02/03 06:15:10;;;;;;;11.43;4.93;;;10.70;99.90;;;;;;5030301;28;20096;-78
2024/02/03 06:17:36;;;;;;;12.68;5.05;;;10.70;99.90;;;;;;5029680;28;20040;-77
2024/02/03 06:20:05;;;;;;;12.35;5.22;;;10.70;99.90;;;;;;5030046;28;20041;-77
2024/02/03 06:22:31;;;;;;;10.45;4.90;;;10.80;99.90;;;;;;5033125;28;20515;-77
2024/02/03 06:24:56;;;;;;;11.00;5.43;;;10.70;99.90;;;;;;5033398;28;20044;-77
2024/02/03 06:27:22;;;;;;;9.68;5.22;;;10.70;99.90;;;;;;5034815;28;20026;-78
2024/02/03 06:29:48;;;;;;;12.10;5.00;;;10.70;99.90;;;;;;5037939;28;20423;-78
2024/02/03 06:32:13;;;;;;;12.07;4.63;;;10.70;99.90;;;;;;5019538;28;20048;-78
2024/02/03 06:34:41;;;;;;;9.13;4.60;;;10.70;99.90;;;;;;5033860;28;20491;-79
2024/02/03 06:37:07;;;;;;;10.82;4.32;;;10.70;99.90;;;;;;5035208;28;20033;-79
2024/02/03 06:39:32;;;;;;;17.60;4.82;;;10.70;99.90;;;;;;5034424;28;20059;-77
2024/02/03 06:41:58;;;;;;;12.07;5.18;;;10.70;99.90;;;;;;5034594;28;20349;-78
2024/02/03 06:44:27;;;;;;;9.55;4.40;;;10.70;99.90;;;;;;5033999;28;20029;-77
2024/02/03 06:46:52;;;;;;;11.77;4.55;;;10.70;99.90;;;;;;5034156;28;20063;-77
2024/02/03 06:49:18;;;;;;;14.38;5.53;;;10.80;99.90;;;;;;5033554;28;20418;-78
2024/02/03 06:51:44;;;;;;;10.77;4.60;;;10.70;99.90;;;;;;5034081;28;20589;-76
2024/02/03 06:54:10;;;;;;;11.02;4.43;;;10.70;99.90;;;;;;5033422;28;20037;-77
2024/02/03 06:56:36;;;;;;;10.68;4.47;;;10.70;99.90;;;;;;5036584;28;20033;-77
2024/02/03 06:59:01;;;;;;;9.93;4.45;;;10.80;99.90;;;;;;5055337;22;20063;-77
2024/02/03 07:01:27;;;;;;;11.70;4.50;;;10.70;99.90;;;;;;5048451;28;20044;-77
2024/02/03 07:03:52;;;;;;;11.85;4.80;;;10.70;99.90;;;;;;5039446;28;20028;-76
2024/02/03 07:06:18;;;;;;;11.02;4.78;;;10.70;99.90;;;;;;5047075;28;20017;-76
2024/02/03 07:08:44;;;;;;;13.73;4.50;;;10.70;99.90;;;;;;5022019;28;20428;-77
2024/02/03 07:11:11;;;;;;;12.20;4.22;;;10.70;99.90;;;;;;5030166;28;20449;-78
2024/02/03 07:13:37;;;;;;;11.95;4.95;;;10.70;99.90;;;;;;5049004;28;20050;-77
2024/02/03 07:16:03;;;;;;;9.27;4.18;;;10.70;99.90;;;;;;5045550;28;20078;-77
2024/02/03 07:18:29;;;;;;;12.25;5.43;;;10.70;99.90;;;;;;5045944;28;20102;-77
2024/02/03 07:20:56;;;;;;;9.40;4.10;;;10.70;99.90;;;;;;5044834;28;20486;-77
2024/02/03 07:23:22;;;;;;;11.52;4.60;;;10.70;99.90;;;;;;5044855;28;20025;-76
2024/02/03 07:25:48;;;;;;;10.15;4.03;;;10.70;99.90;;;;;;5045016;28;20172;-77
2024/02/03 07:28:14;;;;;;;10.25;4.30;;;10.80;99.90;;;;;;5026827;28;20043;-76
2024/02/03 07:30:40;;;;;;;9.15;4.32;;;10.80;99.90;;;;;;5044572;28;20481;-77
2024/02/03 07:33:07;;;;;;;12.50;4.50;;;10.70;99.90;;;;;;5031926;28;20502;-77
2024/02/03 07:35:33;;;;;;;9.73;4.18;;;10.80;99.90;;;;;;5047133;28;20173;-76
2024/02/03 07:37:59;;;;;;;14.25;4.38;;;10.80;99.90;;;;;;5047620;28;20025;-76
2024/02/03 07:40:25;;;;;;;13.02;4.50;;;10.80;99.90;;;;;;5052142;28;20127;-77
2024/02/03 07:42:50;;;;;;;15.20;4.97;;;10.80;99.90;;;;;;5050821;28;20513;-77
2024/02/03 07:45:16;;;;;;;9.43;4.63;;;10.80;99.90;;;;;;5029438;28;20848;-77
2024/02/03 07:47:42;;;;;;;10.93;4.80;;;10.80;99.90;;;;;;5047862;28;20025;-76
2024/02/03 07:50:08;;;;;;;11.15;5.50;;;10.80;99.90;;;;;;5029331;28;20021;-75
2024/02/03 07:52:35;;;;;;;11.38;6.05;;;10.80;99.90;;;;;;5047290;28;20587;-76
2024/02/03 07:55:03;;;;;;;13.15;5.35;;;10.80;99.90;;;;;;5047131;28;20078;-77
2024/02/03 07:57:29;;;;;;;11.43;4.28;;;10.80;99.90;;;;;;5047480;28;20064;-77
2024/02/03 07:59:54;;;;;;;12.07;4.80;;;10.80;99.90;;;;;;5046749;28;20080;-77
2024/02/03 08:02:20;;;;;;;15.18;3.95;;;10.80;99.90;;;;;;5047759;28;20025;-77
2024/02/03 08:04:46;;;;;;;13.82;5.97;;;10.70;99.90;;;;;;5028620;28;20342;-77
2024/02/03 08:07:11;;;;;;;15.88;7.53;;;10.80;99.90;;;;;;5029568;28;20487;-77
2024/02/03 08:09:37;;;;;;;21.83;6.88;;;10.80;99.90;;;;;;5051347;28;20021;-77
2024/02/03 08:12:04;;;;;;;16.90;7.65;;;10.80;99.90;;;;;;5050437;28;20462;-77
2024/02/03 08:14:30;;;;;;;14.38;6.03;;;10.70;99.90;;;;;;5028753;28;20033;-77
2024/02/03 08:16:56;;;;;;;14.70;6.20;;;10.70;99.90;;;;;;5047127;28;20036;-77
2024/02/03 08:19:22;;;;;;;23.23;7.15;;;10.80;99.90;;;;;;5046692;28;20028;-77
2024/02/03 08:21:48;;;;;;;14.77;5.68;;;10.80;99.90;;;;;;5047015;28;20021;-77
2024/02/03 08:24:14;;;;;;;14.02;5.88;;;10.80;99.90;;;;;;5032911;28;20066;-77
2024/02/03 08:26:40;;;;;;;11.68;5.22;;;10.80;99.90;;;;;;5046724;28;20071;-77
2024/02/03 08:29:07;;;;;;;17.05;6.80;;;10.80;99.90;;;;;;5046822;28;20414;-77
2024/02/03 08:31:33;;;;;;;13.50;5.55;;;10.80;99.90;;;;;;5046517;28;20116;-76
2024/02/03 08:33:59;;;;;;;12.18;4.90;;;10.90;99.90;;;;;;5046366;28;20454;-77
2024/02/03 08:36:24;;;;;;;13.82;4.43;;;10.80;99.90;;;;;;5046726;28;20505;-77
2024/02/03 08:38:51;;;;;;;10.45;4.00;;;10.90;99.90;;;;;;5045962;28;20024;-76
2024/02/03 08:41:16;;;;;;;10.38;4.30;;;10.90;99.90;;;;;;5050377;28;20099;-76
2024/02/03 08:43:42;;;;;;;13.10;5.13;;;10.80;99.90;;;;;;5045966;28;20155;-76
2024/02/03 08:46:08;;;;;;;12.70;5.60;;;10.90;99.90;;;;;;5046230;28;20540;-77
2024/02/03 08:48:33;;;;;;;14.55;5.68;;;10.90;99.90;;;;;;5046045;28;20033;-76
2024/02/03 08:50:59;;;;;;;17.95;5.55;;;10.90;99.90;;;;;;5028384;28;20025;-76
2024/02/03 08:53:25;;;;;;;17.05;5.60;;;10.90;99.90;;;;;;5046744;28;20457;-76
2024/02/03 08:55:51;;;;;;;18.38;7.07;;;10.90;99.90;;;;;;5045644;28;20025;-76
2024/02/03 08:58:16;;;;;;;16.38;5.45;;;10.90;99.90;;;;;;5046445;28;20021;-76
2024/02/03 09:00:42;;;;;;;14.50;5.05;;;10.90;99.90;;;;;;5027739;28;20049;-76
2024/02/03 09:03:08;;;;;;;18.48;5.28;;;10.90;99.90;;;;;;5046082;28;20425;-76
2024/02/03 09:05:33;;;;;;;16.60;5.53;;;10.90;99.90;;;;;;5027915;28;20021;-77
2024/02/03 09:07:59;;;;;;;12.13;4.72;;;11.00;99.90;;;;;;5046600;28;20033;-76
2024/02/03 09:10:25;;;;;;;13.30;5.25;;;11.00;99.90;;;;;;5049876;28;20016;-76
2024/02/03 09:12:51;;;;;;;13.55;4.70;;;11.00;99.90;;;;;;5049002;28;20139;-76
2024/02/03 09:15:17;;;;;;;12.00;4.63;;;11.00;99.90;;;;;;5045541;28;20032;-76
2024/02/03 09:17:42;;;;;;;15.10;4.13;;;11.00;99.90;;;;;;5046188;28;20086;-75
2024/02/03 09:20:09;;;;;;;9.32;3.92;;;11.00;99.90;;;;;;5045669;28;20083;-76
2024/02/03 09:22:34;;;;;;;8.93;4.28;;;11.00;99.90;;;;;;5045843;28;20052;-76
2024/02/03 09:25:00;;;;;;;12.88;3.97;;;11.00;99.90;;;;;;5045805;28;20475;-76
2024/02/03 09:27:26;;;;;;;20.92;4.70;;;11.10;99.90;;;;;;5028487;28;20474;-76
2024/02/03 09:29:51;;;;;;;15.63;4.55;;;11.10;99.90;;;;;;5045859;28;20029;-76
2024/02/03 09:32:17;;;;;;;14.80;6.05;;;11.10;99.90;;;;;;5043820;28;20029;-76
2024/02/03 09:34:49;;;;;;;13.52;5.25;;;11.10;99.90;;;;;;5015973;28;20036;-76
2024/02/03 09:37:15;;;;;;;10.55;4.75;;;11.10;99.90;;;;;;5045796;28;20021;-75
2024/02/03 09:39:42;;;;;;;14.75;5.00;;;11.10;99.90;;;;;;5045364;28;20055;-76
2024/02/03 09:42:09;;;;;;;8.65;4.28;;;11.10;99.90;;;;;;5047810;28;20040;-75
2024/02/03 09:44:35;;;;;;;11.25;5.43;;;11.10;99.90;;;;;;5033871;28;20040;-75
2024/02/03 09:47:04;;;;;;;15.52;5.72;;;11.10;99.90;;;;;;5045791;28;20498;-74
2024/02/03 09:49:30;;;;;;;11.07;5.13;;;11.10;99.90;;;;;;5045896;28;20017;-74
2024/02/03 09:51:57;;;;;;;14.93;4.70;;;11.10;99.90;;;;;;5027790;28;20035;-76
2024/02/03 09:54:25;;;;;;;11.38;5.25;;;11.10;99.90;;;;;;5045090;28;20028;-75
2024/02/03 09:56:51;;;;;;;13.65;5.60;;;11.10;99.90;;;;;;5047070;28;20039;-74
2024/02/03 09:59:17;;;;;;;15.70;4.65;;;11.10;99.90;;;;;;5049012;28;20049;-76
2024/02/03 10:01:45;;;;;;;23.75;6.47;;;11.10;99.90;;;;;;5049517;28;20017;-77
2024/02/03 10:04:14;;;;;;;12.48;5.18;;;11.10;99.90;;;;;;5031019;28;20397;-77
2024/02/03 10:06:42;;;;;;;16.92;5.07;;;11.10;99.90;;;;;;5049780;28;20105;-75
2024/02/03 10:09:08;;;;;;;13.95;4.93;;;11.10;99.90;;;;;;5049609;28;20616;-77
2024/02/03 10:11:40;;;;;;;18.40;4.85;;;11.10;99.90;;;;;;5050900;28;20039;-76
2024/02/03 10:14:06;;;;;;;10.75;4.95;;;11.10;99.90;;;;;;5040242;28;20033;-76
2024/02/03 10:16:43;;;;;;;19.85;5.55;;;11.10;99.90;;;;;;5050225;28;20029;-75
2024/02/03 10:19:09;;;;;;;26.25;6.15;;;11.10;99.90;;;;;;5035208;28;20021;-76
2024/02/03 10:21:34;;;;;;;13.68;3.88;;;11.10;99.90;;;;;;5048926;28;20032;-75
2024/02/03 10:24:00;;;;;;;11.60;4.03;;;11.10;99.90;;;;;;5049048;28;20032;-76
2024/02/03 10:26:26;;;;;;;16.20;4.32;;;11.10;99.90;;;;;;5049309;28;20454;-76
2024/02/03 10:28:52;;;;;;;17.25;4.32;;;11.10;99.90;;;;;;5030926;28;20036;-78
2024/02/03 10:31:18;;;;;;;6.57;3.40;;;11.10;99.90;;;;;;5049628;28;20040;-76
2024/02/03 10:33:45;;;;;;;15.38;4.25;;;11.10;99.90;;;;;;5048921;28;20512;-75
2024/02/03 10:36:11;;;;;;;15.55;3.13;;;11.10;99.90;;;;;;5048937;28;20032;-77
2024/02/03 10:38:39;;;;;;;11.48;4.43;;;11.10;99.90;;;;;;5050557;28;20386;-76
2024/02/03 10:41:09;;;;;;;14.02;3.53;;;11.10;99.90;;;;;;5052915;28;20025;-76
2024/02/03 10:43:37;;;;;;;16.67;4.80;;;11.10;99.90;;;;;;5050336;28;20025;-76
2024/02/03 10:46:05;;;;;;;12.60;4.47;;;11.10;99.90;;;;;;5048245;28;20020;-76
2024/02/03 10:48:33;;;;;;;7.30;2.67;;;11.10;99.90;;;;;;5030774;28;20438;-76
2024/02/03 10:51:15;;;;;;;17.70;4.90;;;11.10;99.90;;;;;;5048656;28;20020;-76
2024/02/03 10:53:53;;;;;;;13.18;5.18;;;11.10;99.90;;;;;;5048770;28;20025;-75
2024/02/03 10:56:23;;;;;;;18.30;5.82;;;11.10;99.90;;;;;;5048400;28;20074;-76
2024/02/03 10:58:49;;;;;;;9.77;3.73;;;11.10;99.90;;;;;;5048340;28;20037;-77
2024/02/03 11:01:17;;;;;;;12.32;4.13;;;11.10;99.90;;;;;;5048274;28;20029;-77
2024/02/03 11:03:46;;;;;;;10.95;3.47;;;11.10;99.90;;;;;;5032112;28;20039;-77
2024/02/03 11:06:11;;;;;;;14.13;4.30;;;11.20;99.90;;;;;;5052632;28;20634;-77
2024/02/03 11:08:43;;;;;;;10.43;3.35;;;11.20;99.90;;;;;;5052723;28;20138;-77
2024/02/03 11:11:08;;;;;;;10.55;3.40;;;11.20;99.90;;;;;;5048761;28;20132;-77
2024/02/03 11:13:43;;;;;;;14.18;3.97;;;11.20;99.90;;;;;;5048225;28;20124;-77
2024/02/03 11:16:08;;;;;;;11.35;3.92;;;11.20;99.90;;;;;;5048061;28;20151;-77
2024/02/03 11:18:40;;;;;;;9.60;3.42;;;11.20;99.90;;;;;;5047976;28;20071;-76
2024/02/03 11:21:07;;;;;;;13.93;3.08;;;11.20;99.90;;;;;;5030109;28;20021;-77
2024/02/03 11:23:34;;;;;;;13.15;3.92;;;11.20;99.90;;;;;;5048248;28;20083;-76
2024/02/03 11:25:59;;;;;;;15.00;4.30;;;11.20;99.90;;;;;;5048048;28;20515;-78
2024/02/03 11:28:34;;;;;;;10.63;4.43;;;11.10;99.90;;;;;;5048723;28;20090;-76
2024/02/03 11:31:04;;;;;;;10.57;3.83;;;11.10;99.90;;;;;;5048127;28;20009;-77
2024/02/03 11:33:45;;;;;;;7.38;3.72;;;11.10;99.90;;;;;;5047819;28;20066;-77
2024/02/03 11:36:11;;;;;;;;;;;11.10;99.90;;;;;;5041768;28;20032;-77
2024/02/03 11:38:47;;;;;;;10.43;3.88;;;11.10;99.90;;;;;;5026913;28;19909;-77
2024/02/03 11:41:13;;;;;;;8.10;3.65;;;11.00;99.90;;;;;;5032875;28;20200;-76
2024/02/03 11:43:40;;;;;;;9.35;3.10;;;11.00;99.90;;;;;;5048005;28;20014;-77
2024/02/03 11:46:08;;;;;;;8.65;3.47;;;11.00;99.90;;;;;;5047536;28;20028;-78
2024/02/03 11:48:35;;;;;;;9.18;3.80;;;11.00;99.90;;;;;;5047629;28;20029;-76
2024/02/03 11:51:02;;;;;;;10.50;3.72;;;11.00;99.90;;;;;;5047210;28;20036;-77
2024/02/03 11:53:27;;;;;;;10.77;3.63;;;11.10;99.90;;;;;;5047771;28;20029;-76
2024/02/03 11:55:54;;;;;;;7.70;3.50;;;11.10;99.90;;;;;;5047156;28;20485;-77
2024/02/03 11:58:20;;;;;;;9.38;3.47;;;11.10;99.90;;;;;;5029645;28;20075;-76
2024/02/03 12:00:46;;;;;;;13.80;3.70;;;11.10;99.90;;;;;;5046993;28;20074;-77
2024/02/03 12:03:12;;;;;;;10.20;3.38;;;11.10;99.90;;;;;;5047840;28;20104;-77
2024/02/03 12:05:39;;;;;;;10.60;3.47;;;11.10;99.90;;;;;;5046967;28;20431;-77
2024/02/03 12:08:05;;;;;;;10.40;3.30;;;11.10;99.90;;;;;;5029695;28;20408;-77
2024/02/03 12:10:32;;;;;;;7.63;3.30;;;11.00;99.90;;;;;;5023981;28;20438;-78
2024/02/03 12:13:02;;;;;;;12.23;3.28;;;11.10;99.90;;;;;;5038744;28;20070;-77
2024/02/03 12:15:29;;;;;;;10.20;3.87;;;11.00;99.90;;;;;;5046822;28;20009;-77
2024/02/03 12:17:59;;;;;;;6.50;3.40;;;11.10;99.90;;;;;;5029391;28;20703;-77
2024/02/03 12:20:26;;;;;;;6.53;3.28;;;11.10;99.90;;;;;;5046171;28;20032;-77
2024/02/03 12:22:51;;;;;;;13.05;4.25;;;11.10;99.90;;;;;;5029435;28;20415;-76
2024/02/03 12:25:17;;;;;;;8.15;4.00;;;11.10;99.90;;;;;;5046742;28;20021;-77
2024/02/03 12:27:44;;;;;;;9.32;4.18;;;11.10;99.90;;;;;;5047239;28;20505;-77
2024/02/03 12:30:20;;;;;;;12.07;3.97;;;11.10;99.90;;;;;;5046684;28;20106;-77
2024/02/03 12:32:47;;;;;;;11.02;4.72;;;11.10;99.90;;;;;;5030922;28;20078;-76